Time;durP1;ratioP1;P1;durP2;ratioP2;P2;SDS_P1;SDS_P2;PMS_P1;PMS_P2;Temp;Humidity;BMP_temperature;BMP_pressure;BME280_temperature;BME280_humidity;BME280_pressure;Samples;Min_cycle;Max_cycle;Signal;HPM_P1;HPM_P2
2022/07/24 00:02:20;;;;;;;22.23;16.30;;;;;;;15.97;90.57;101898.97;6156501;23;20060;-81
2022/07/24 00:04:45;;;;;;;21.83;16.90;;;;;;;15.95;90.52;101906.06;6156970;23;20006;-79
2022/07/24 00:07:11;;;;;;;20.58;15.90;;;;;;;15.93;90.61;101897.53;6156390;23;20005;-80
2022/07/24 00:09:36;;;;;;;20.85;16.63;;;;;;;15.94;90.38;101900.97;6156573;23;20088;-78
2022/07/24 00:12:02;;;;;;;23.15;17.33;;;;;;;15.89;90.51;101890.03;6156579;23;20012;-78
2022/07/24 00:14:28;;;;;;;21.48;17.70;;;;;;;15.81;90.54;101877.50;6156825;23;20312;-81
2022/07/24 00:16:53;;;;;;;21.42;18.05;;;;;;;15.58;90.79;101852.19;6156554;23;20033;-81
2022/07/24 00:19:18;;;;;;;21.88;17.40;;;;;;;15.83;90.71;101893.03;6156479;23;20491;-80
2022/07/24 00:21:44;;;;;;;20.83;17.50;;;;;;;15.81;90.79;101897.53;6156675;23;20097;-81
2022/07/24 00:24:09;;;;;;;20.77;17.85;;;;;;;15.78;90.56;101888.97;6129360;23;20083;-82
2022/07/24 00:26:35;;;;;;;26.45;17.92;;;;;;;15.75;90.73;101889.19;6156430;23;20047;-82
2022/07/24 00:29:00;;;;;;;23.77;19.27;;;;;;;15.74;90.79;101891.91;6156578;23;20011;-82
2022/07/24 00:31:26;;;;;;;22.98;19.02;;;;;;;15.67;91.04;101882.84;6156085;23;20013;-78
2022/07/24 00:33:51;;;;;;;21.45;18.88;;;;;;;15.70;90.88;101890.44;6156294;23;20009;-72
2022/07/24 00:36:17;;;;;;;23.73;19.67;;;;;;;15.60;91.13;101876.34;6156753;23;20010;-80
2022/07/24 00:38:42;;;;;;;23.08;20.02;;;;;;;15.62;91.00;101895.31;6156543;23;20416;-79
2022/07/24 00:41:07;;;;;;;24.10;19.25;;;;;;;15.64;91.47;101889.09;6156717;23;20060;-81
2022/07/24 00:43:33;;;;;;;25.20;19.73;;;;;;;15.53;91.55;101882.88;6156675;23;20005;-77
2022/07/24 00:45:58;;;;;;;24.60;18.98;;;;;;;15.63;91.77;101900.47;6156240;23;20012;-78
2022/07/24 00:48:24;;;;;;;24.45;19.35;;;;;;;15.62;91.41;101903.97;6155990;23;20093;-78
2022/07/24 00:50:49;;;;;;;24.08;19.75;;;;;;;15.58;91.43;101899.06;6156422;23;20033;-80
2022/07/24 00:53:14;;;;;;;25.42;20.38;;;;;;;15.45;91.42;101878.22;6156792;23;20006;-81
2022/07/24 00:55:41;;;;;;;26.42;20.75;;;;;;;15.55;91.59;101888.84;6156059;23;20052;-81
2022/07/24 00:58:06;;;;;;;26.17;20.40;;;;;;;15.53;91.44;101896.75;6156234;23;20010;-82
2022/07/24 01:00:32;;;;;;;25.35;20.00;;;;;;;15.25;91.72;101853.53;6154014;23;20056;-74
2022/07/24 01:02:57;;;;;;;24.65;18.80;;;;;;;15.48;91.80;101894.47;6156322;23;20009;-80
2022/07/24 01:05:22;;;;;;;28.85;20.40;;;;;;;15.47;91.80;101889.34;6156629;23;20002;-81
2022/07/24 01:07:48;;;;;;;26.13;20.10;;;;;;;15.46;91.82;101885.91;6156184;23;20006;-78
2022/07/24 01:10:13;;;;;;;25.17;20.05;;;;;;;15.43;92.21;101887.88;6156243;23;20415;-71
2022/07/24 01:12:40;;;;;;;26.42;20.08;;;;;;;15.41;92.46;101880.16;6156421;23;20125;-81
2022/07/24 01:15:07;;;;;;;24.77;20.02;;;;;;;15.38;92.27;101879.56;6155952;23;20088;-80
2022/07/24 01:17:35;;;;;;;24.88;20.35;;;;;;;15.28;92.27;101868.09;6156078;23;20005;-73
2022/07/24 01:20:00;;;;;;;26.08;20.48;;;;;;;15.24;92.48;101861.41;6156233;23;20331;-80
2022/07/24 01:22:27;;;;;;;25.55;20.33;;;;;;;15.28;92.05;101874.13;6155834;23;20052;-82
2022/07/24 01:24:54;;;;;;;27.38;20.15;;;;;;;15.29;92.50;101881.00;6156418;23;20009;-80
2022/07/24 01:27:20;;;;;;;25.23;19.13;;;;;;;15.25;92.48;101860.50;6156015;23;20073;-81
2022/07/24 01:29:46;;;;;;;24.05;19.60;;;;;;;15.28;92.23;101868.09;6156270;23;20002;-80
2022/07/24 01:32:11;;;;;;;23.27;19.27;;;;;;;15.18;92.22;101847.88;6155691;23;20001;-79
2022/07/24 01:34:36;;;;;;;24.05;20.20;;;;;;;15.24;92.25;101864.88;6155742;23;20009;-81
2022/07/24 01:37:02;;;;;;;25.48;20.38;;;;;;;15.08;92.22;101841.63;6155571;23;20009;-81
2022/07/24 01:39:27;;;;;;;25.42;19.52;;;;;;;15.19;92.35;101856.50;6156148;23;20077;-81
2022/07/24 01:41:53;;;;;;;25.25;20.48;;;;;;;15.17;92.62;101861.00;6155757;23;20005;-81
2022/07/24 01:44:18;;;;;;;23.65;18.90;;;;;;;15.03;92.36;101848.88;6156018;23;20012;-74
2022/07/24 01:46:43;;;;;;;28.10;20.55;;;;;;;15.13;92.77;101869.91;6156205;23;20016;-79
2022/07/24 01:49:09;;;;;;;23.15;18.77;;;;;;;15.09;92.47;101869.28;6155236;23;20013;-80
2022/07/24 01:51:35;;;;;;;23.02;19.08;;;;;;;15.13;92.16;101860.34;6155419;23;20010;-80
2022/07/24 01:54:02;;;;;;;25.02;18.75;;;;;;;15.12;93.05;101861.28;6155529;23;20088;-80
2022/07/24 01:56:28;;;;;;;24.13;18.95;;;;;;;15.08;93.06;101861.59;6155542;23;20149;-79
2022/07/24 01:58:53;;;;;;;23.25;19.10;;;;;;;15.11;92.89;101862.22;6155396;23;20005;-81
2022/07/24 02:01:19;;;;;;;25.42;19.33;;;;;;;14.98;92.79;101840.56;6155596;23;20005;-77
2022/07/24 02:03:45;;;;;;;24.02;19.40;;;;;;;14.98;92.87;101837.13;6153538;23;20005;-79
2022/07/24 02:06:10;;;;;;;23.45;18.95;;;;;;;15.07;92.84;101860.75;6155040;23;20375;-79
2022/07/24 02:08:35;;;;;;;23.60;18.65;;;;;;;15.05;93.05;101856.59;6128332;23;20085;-81
2022/07/24 02:11:00;;;;;;;23.25;18.38;;;;;;;15.07;92.65;101860.75;6155765;23;20414;-80
2022/07/24 02:13:26;;;;;;;22.55;19.10;;;;;;;15.06;92.82;101866.06;6155702;23;20013;-81
2022/07/24 02:15:52;;;;;;;25.95;18.98;;;;;;;15.06;93.20;101868.66;6155507;23;20002;-79
2022/07/24 02:18:18;;;;;;;22.25;18.30;;;;;;;15.00;93.15;101872.50;6155526;23;20001;-80
2022/07/24 02:20:43;;;;;;;27.67;19.48;;;;;;;14.95;93.07;101855.53;6155160;23;20008;-78
2022/07/24 02:23:08;;;;;;;23.08;18.30;;;;;;;14.95;92.72;101850.34;6155652;23;20072;-75
2022/07/24 02:25:34;;;;;;;23.20;18.17;;;;;;;15.02;92.91;101857.59;6155328;23;20013;-77
2022/07/24 02:27:59;;;;;;;21.67;18.05;;;;;;;14.99;93.20;101867.41;6155362;23;20012;-79
2022/07/24 02:30:25;;;;;;;21.38;17.67;;;;;;;14.88;93.15;101848.13;6155643;23;20001;-73
2022/07/24 02:32:51;;;;;;;25.00;17.83;;;;;;;14.88;93.33;101855.91;6155054;23;20009;-80
2022/07/24 02:35:17;;;;;;;22.08;17.58;;;;;;;14.77;93.66;101841.94;6155594;23;20064;-78
2022/07/24 02:37:44;;;;;;;22.45;17.85;;;;;;;14.81;93.95;101859.00;6155465;23;20009;-80
2022/07/24 02:40:11;;;;;;;21.38;18.02;;;;;;;14.78;94.03;101867.00;6155142;23;20009;-81
2022/07/24 02:42:37;;;;;;;23.77;19.13;;;;;;;14.74;93.82;101857.72;6155255;23;20004;-78
2022/07/24 02:45:04;;;;;;;22.15;18.40;;;;;;;14.73;93.76;101861.25;6155362;23;20032;-81
2022/07/24 02:47:29;;;;;;;23.85;18.75;;;;;;;14.60;94.13;101849.06;6155193;23;20361;-81
2022/07/24 02:49:55;;;;;;;22.48;18.20;;;;;;;14.59;94.12;101849.97;6155061;23;20029;-79
2022/07/24 02:52:20;;;;;;;24.08;18.13;;;;;;;14.66;93.81;101863.44;6155121;23;20040;-81
2022/07/24 02:54:46;;;;;;;24.25;18.38;;;;;;;14.63;94.06;101864.44;6155237;23;20001;-81
2022/07/24 02:57:11;;;;;;;25.13;19.00;;;;;;;14.63;93.97;101861.84;6154953;23;20021;-80
2022/07/24 02:59:36;;;;;;;22.58;17.58;;;;;;;14.58;94.10;101861.31;6155001;23;20324;-82
2022/07/24 03:02:02;;;;;;;23.70;18.27;;;;;;;14.45;94.59;101839.59;6155141;23;20136;-72
2022/07/24 03:04:27;;;;;;;21.33;16.88;;;;;;;14.58;94.63;101858.72;6154789;23;20009;-78
2022/07/24 03:06:52;;;;;;;22.02;18.08;;;;;;;14.56;94.76;101868.38;6154949;23;20010;-80
2022/07/24 03:09:18;;;;;;;24.38;18.63;;;;;;;14.53;94.97;101849.53;6155065;23;20005;-80
2022/07/24 03:11:43;;;;;;;25.70;18.42;;;;;;;14.55;94.85;101863.25;6128930;23;20056;-80
2022/07/24 03:14:08;;;;;;;22.25;18.17;;;;;;;14.48;94.98;101849.00;6155283;23;20416;-76
2022/07/24 03:16:34;;;;;;;21.17;17.23;;;;;;;14.51;94.93;101857.44;6155217;23;20012;-82
2022/07/24 03:18:59;;;;;;;23.45;18.17;;;;;;;14.55;95.12;101858.06;6155085;23;20478;-82
2022/07/24 03:21:24;;;;;;;21.77;17.30;;;;;;;14.51;95.26;101862.63;6155208;23;20016;-71
2022/07/24 03:23:49;;;;;;;23.60;17.60;;;;;;;14.45;95.72;101843.97;6154900;23;19998;-74
2022/07/24 03:26:15;;;;;;;21.00;17.13;;;;;;;14.43;94.97;101831.06;6155466;23;20072;-71
2022/07/24 03:28:40;;;;;;;20.83;17.52;;;;;;;14.40;95.18;101826.06;6154832;23;20463;-78
2022/07/24 03:31:06;;;;;;;21.77;17.25;;;;;;;14.51;95.50;101843.59;6155297;23;20416;-80
2022/07/24 03:33:31;;;;;;;22.20;17.90;;;;;;;14.47;95.42;101845.56;6152777;23;20336;-81
2022/07/24 03:35:57;;;;;;;22.00;17.58;;;;;;;14.49;95.37;101848.91;6155135;23;20048;-81
2022/07/24 03:38:22;;;;;;;22.40;18.52;;;;;;;14.46;95.61;101854.28;6155156;23;20076;-81
2022/07/24 03:40:47;;;;;;;20.83;17.42;;;;;;;14.46;95.45;101849.09;6129055;23;20001;-82
2022/07/24 03:43:13;;;;;;;21.88;17.27;;;;;;;14.42;95.37;101850.19;6155022;23;20084;-78
2022/07/24 03:45:38;;;;;;;21.63;18.30;;;;;;;14.44;95.77;101857.88;6154879;23;20025;-81
2022/07/24 03:48:04;;;;;;;23.67;17.75;;;;;;;14.39;95.66;101852.97;6154864;23;20014;-78
2022/07/24 03:50:30;;;;;;;22.08;17.90;;;;;;;14.39;95.79;101852.97;6127962;23;20009;-81
2022/07/24 03:52:55;;;;;;;21.83;17.63;;;;;;;14.38;95.86;101848.72;6155179;23;20080;-82
2022/07/24 03:55:21;;;;;;;23.83;18.00;;;;;;;14.13;96.02;101804.41;6155189;23;20006;-80
2022/07/24 03:57:46;;;;;;;23.13;18.65;;;;;;;14.31;96.18;101826.63;6154699;23;20431;-81
2022/07/24 04:00:12;;;;;;;23.65;18.90;;;;;;;14.41;96.26;101837.28;6155180;23;20006;-82
2022/07/24 04:02:37;;;;;;;25.90;20.67;;;;;;;14.39;96.77;101827.00;6154973;23;20001;-81
2022/07/24 04:05:06;;;;;;;24.52;19.33;;;;;;;14.37;96.34;101820.22;6152594;23;20012;-75
2022/07/24 04:07:32;;;;;;;23.63;19.45;;;;;;;14.52;96.17;101843.50;6155162;23;20446;-79
2022/07/24 04:09:57;;;;;;;26.42;21.10;;;;;;;14.52;96.10;101838.28;6154618;23;20088;-81
2022/07/24 04:12:22;;;;;;;28.55;21.80;;;;;;;14.60;95.90;101850.81;6155034;23;20048;-75
2022/07/24 04:14:48;;;;;;;26.30;21.42;;;;;;;14.66;95.80;101844.41;6155223;23;20001;-78
2022/07/24 04:17:13;;;;;;;26.80;20.92;;;;;;;14.67;95.64;101828.69;6128666;23;20052;-81
2022/07/24 04:19:38;;;;;;;28.05;21.67;;;;;;;14.61;95.54;101816.91;6154795;23;20006;-81
2022/07/24 04:22:03;;;;;;;27.20;22.88;;;;;;;14.73;95.46;101830.88;6154790;23;20029;-82
2022/07/24 04:24:29;;;;;;;30.30;23.17;;;;;;;14.77;95.66;101839.34;6154834;23;20029;-79
2022/07/24 04:26:54;;;;;;;30.42;24.17;;;;;;;14.80;95.69;101852.13;6155017;23;20029;-81
2022/07/24 04:29:19;;;;;;;28.42;22.70;;;;;;;14.84;95.28;101853.59;6155358;23;20101;-75
2022/07/24 04:31:45;;;;;;;30.77;24.50;;;;;;;14.88;95.25;101847.28;6156808;23;20024;-81
2022/07/24 04:34:10;;;;;;;36.20;28.58;;;;;;;14.90;95.91;101848.00;6156357;23;20018;-81
2022/07/24 04:36:36;;;;;;;36.90;27.65;;;;;;;14.98;95.94;101853.56;6156579;23;20005;-79
2022/07/24 04:39:01;;;;;;;36.13;28.85;;;;;;;15.04;95.94;101854.91;6156320;23;20002;-71
2022/07/24 04:41:27;;;;;;;37.53;30.02;;;;;;;14.97;96.44;101851.88;6156496;23;20060;-80
2022/07/24 04:43:52;;;;;;;41.15;30.95;;;;;;;15.09;96.35;101860.66;6156410;23;20032;-81
2022/07/24 04:46:17;;;;;;;42.70;30.92;;;;;;;15.12;96.33;101853.47;6156860;23;20085;-80
2022/07/24 04:48:43;;;;;;;40.92;29.77;;;;;;;15.20;96.19;101860.78;6156178;23;20033;-81
2022/07/24 04:51:08;;;;;;;43.47;32.05;;;;;;;15.23;95.92;101855.38;6130161;23;20065;-81
2022/07/24 04:53:34;;;;;;;43.97;33.72;;;;;;;15.33;96.26;101863.41;6156322;23;20006;-82
2022/07/24 04:55:59;;;;;;;42.83;33.90;;;;;;;15.41;95.80;101854.16;6156248;23;20008;-80
2022/07/24 04:58:26;;;;;;;46.40;34.47;;;;;;;15.50;95.60;101856.13;6156310;23;20010;-72
2022/07/24 05:00:51;;;;;;;43.20;33.33;;;;;;;15.57;95.78;101859.16;6156222;23;20073;-79
2022/07/24 05:03:17;;;;;;;44.58;33.22;;;;;;;15.69;94.75;101855.75;6156416;23;20001;-82
2022/07/24 05:05:42;;;;;;;45.13;32.95;;;;;;;15.76;94.77;101854.41;6156001;23;20300;-80
2022/07/24 05:08:07;;;;;;;48.63;33.63;;;;;;;15.87;94.17;101845.03;6156168;23;20014;-75
2022/07/24 05:10:33;;;;;;;45.05;33.10;;;;;;;15.97;94.07;101859.06;6156078;23;20012;-82
2022/07/24 05:12:58;;;;;;;45.45;34.28;;;;;;;16.04;93.25;101839.47;6156105;23;20093;-78
2022/07/24 05:15:23;;;;;;;25.98;21.25;;;;;;;16.44;92.92;101849.69;6156126;23;20002;-78
2022/07/24 05:17:49;;;;;;;33.40;25.92;;;;;;;16.91;90.71;101847.13;6130322;23;20005;-78
2022/07/24 05:20:14;;;;;;;37.83;28.58;;;;;;;17.38;87.53;101831.47;6155879;23;20001;-78
2022/07/24 05:22:39;;;;;;;33.63;25.95;;;;;;;17.97;84.34;101849.56;6156545;23;20323;-78
2022/07/24 05:25:05;;;;;;;40.63;29.95;;;;;;;18.43;82.15;101852.00;6156342;23;20470;-77
2022/07/24 05:27:31;;;;;;;29.40;21.10;;;;;;;19.07;79.00;101832.88;6156211;23;20052;-79
2022/07/24 05:29:56;;;;;;;37.28;28.00;;;;;;;19.73;76.68;101860.47;6156291;23;20379;-76
2022/07/24 05:32:21;;;;;;;29.70;24.38;;;;;;;20.42;73.13;101861.50;6156100;23;20073;-76
2022/07/24 05:34:47;;;;;;;37.28;28.35;;;;;;;20.95;70.69;101855.94;6156045;23;20081;-78
2022/07/24 05:37:12;;;;;;;34.20;25.55;;;;;;;21.52;68.19;101849.75;6156154;23;20006;-79
2022/07/24 05:39:38;;;;;;;31.88;24.85;;;;;;;22.27;65.36;101869.00;6156074;23;20005;-79
2022/07/24 05:42:04;;;;;;;35.80;27.52;;;;;;;22.72;63.52;101866.34;6155654;23;20044;-79
2022/07/24 05:44:29;;;;;;;30.67;23.70;;;;;;;23.38;61.14;101868.50;6155712;23;20016;-74
2022/07/24 05:46:55;;;;;;;33.63;26.35;;;;;;;23.65;60.51;101870.19;6155702;23;20479;-78
2022/07/24 05:49:20;;;;;;;30.10;23.40;;;;;;;24.16;58.68;101868.44;6155361;23;20351;-78
2022/07/24 05:51:45;;;;;;;27.33;22.23;;;;;;;24.71;56.09;101865.28;6155980;23;20006;-75
2022/07/24 05:54:10;;;;;;;28.98;22.60;;;;;;;25.12;55.01;101868.78;6155631;23;20412;-74
2022/07/24 05:56:36;;;;;;;32.42;24.05;;;;;;;25.43;53.89;101866.22;6155608;23;20009;-75
2022/07/24 05:59:02;;;;;;;32.35;25.05;;;;;;;25.66;53.07;101865.50;6155534;23;20008;-76
2022/07/24 06:01:27;;;;;;;33.65;25.55;;;;;;;25.81;52.67;101868.31;6155692;23;20005;-78
2022/07/24 06:03:52;;;;;;;28.60;21.20;;;;;;;26.25;51.13;101868.59;6155602;23;20002;-77
2022/07/24 06:06:17;;;;;;;28.98;22.58;;;;;;;26.44;50.18;101864.69;6155521;23;20006;-77
2022/07/24 06:08:43;;;;;;;27.35;22.52;;;;;;;26.68;49.60;101863.72;6155839;23;20012;-78
2022/07/24 06:11:08;;;;;;;28.10;23.98;;;;;;;27.06;48.72;101875.19;6155560;23;20035;-78
2022/07/24 06:13:34;;;;;;;33.55;25.40;;;;;;;27.13;47.73;101865.50;6155467;23;20075;-79
2022/07/24 06:15:59;;;;;;;31.35;24.55;;;;;;;27.29;47.31;101856.56;6155378;23;20431;-79
2022/07/24 06:18:24;;;;;;;29.30;24.55;;;;;;;27.59;46.61;101868.84;6155341;23;20006;-78
2022/07/24 06:20:50;;;;;;;30.88;23.73;;;;;;;27.72;46.13;101834.53;6155714;23;20397;-78
2022/07/24 06:23:15;;;;;;;28.23;23.05;;;;;;;28.15;44.91;101869.19;6155360;23;20001;-75
2022/07/24 06:25:40;;;;;;;31.38;24.20;;;;;;;28.65;43.86;101877.28;6155372;23;20013;-76
2022/07/24 06:28:05;;;;;;;33.28;24.75;;;;;;;28.77;42.96;101870.44;6155381;23;20009;-79
2022/07/24 06:30:31;;;;;;;32.55;23.67;;;;;;;29.19;42.51;101858.09;6155525;23;20009;-76
2022/07/24 06:32:58;;;;;;;31.30;22.95;;;;;;;29.56;41.89;101875.56;6155524;23;20010;-77
2022/07/24 06:35:27;;;;;;;30.27;23.13;;;;;;;29.63;40.96;101845.28;6155175;23;20008;-78
2022/07/24 06:37:53;;;;;;;24.38;20.95;;;;;;;29.87;40.23;101853.78;6155301;23;20041;-77
2022/07/24 06:40:19;;;;;;;28.77;22.35;;;;;;;30.06;39.76;101863.69;6155386;23;20008;-78
2022/07/24 06:42:46;;;;;;;23.58;18.75;;;;;;;30.60;38.54;101876.16;6155562;23;20075;-76
2022/07/24 06:45:12;;;;;;;24.02;20.13;;;;;;;30.87;37.96;101871.66;6155062;23;20304;-76
2022/07/24 06:47:38;;;;;;;26.00;20.10;;;;;;;31.08;38.44;101868.78;6155129;23;20017;-77
2022/07/24 06:50:04;;;;;;;20.90;17.27;;;;;;;31.68;36.41;101861.47;6155090;23;20356;-78
2022/07/24 06:52:30;;;;;;;22.73;17.98;;;;;;;31.64;36.37;101868.25;6155081;23;20403;-77
2022/07/24 06:54:55;;;;;;;19.80;16.23;;;;;;;31.70;35.99;101863.94;6155306;23;20002;-77
2022/07/24 06:57:20;;;;;;;22.38;17.83;;;;;;;31.42;36.49;101856.22;6155515;23;20023;-75
2022/07/24 06:59:46;;;;;;;20.52;16.80;;;;;;;31.93;35.33;101829.53;6155317;23;20384;-77
2022/07/24 07:02:11;;;;;;;20.70;16.13;;;;;;;31.88;34.54;101857.94;6155091;23;20335;-78
2022/07/24 07:04:36;;;;;;;20.90;16.73;;;;;;;31.85;34.53;101858.34;6155141;23;20005;-76
2022/07/24 07:07:03;;;;;;;17.60;15.35;;;;;;;31.66;35.06;101854.69;6154982;23;20009;-78
2022/07/24 07:09:28;;;;;;;15.73;13.13;;;;;;;32.05;34.00;101848.38;6155492;23;20001;-74
2022/07/24 07:11:54;;;;;;;16.90;13.77;;;;;;;32.29;33.97;101854.00;6155063;23;20412;-78
2022/07/24 07:14:19;;;;;;;17.98;14.73;;;;;;;32.23;33.54;101845.81;6155062;23;20085;-77
2022/07/24 07:16:45;;;;;;;17.30;13.60;;;;;;;32.33;32.96;101849.88;6154901;23;20006;-78
2022/07/24 07:19:10;;;;;;;16.13;13.30;;;;;;;32.71;33.76;101866.66;6155069;23;20060;-79
2022/07/24 07:21:37;;;;;;;14.85;12.30;;;;;;;33.06;32.84;101864.34;6154803;23;20061;-77
2022/07/24 07:24:03;;;;;;;15.20;13.38;;;;;;;32.72;32.89;101857.59;6155179;23;20009;-77
2022/07/24 07:26:28;;;;;;;16.38;11.32;;;;;;;32.63;32.18;101858.09;6155214;23;20033;-80
2022/07/24 07:28:53;;;;;;;21.23;12.07;;;;;;;32.27;32.52;101858.75;6154898;23;20048;-77
2022/07/24 07:31:19;;;;;;;16.77;11.38;;;;;;;32.11;32.75;101860.06;6155370;23;20100;-77
2022/07/24 07:33:44;;;;;;;15.15;11.13;;;;;;;32.22;32.50;101857.53;6155122;23;20005;-74
2022/07/24 07:36:09;;;;;;;15.68;10.88;;;;;;;32.28;32.88;101825.63;6154789;23;20197;-76
2022/07/24 07:38:37;;;;;;;13.32;10.25;;;;;;;32.04;32.89;101846.72;6154851;23;20006;-80
2022/07/24 07:41:03;;;;;;;15.32;10.45;;;;;;;30.67;35.79;101865.50;6154438;23;20024;-76
2022/07/24 07:43:28;;;;;;;13.90;9.52;;;;;;;28.93;37.94;101861.41;6155244;23;20080;-78
2022/07/24 07:45:53;;;;;;;11.88;9.18;;;;;;;27.62;40.92;101863.16;6155032;23;20028;-74
2022/07/24 07:48:19;;;;;;;11.75;7.78;;;;;;;26.71;42.03;101861.53;6154995;23;20013;-76
2022/07/24 07:50:44;;;;;;;10.38;7.75;;;;;;;25.98;43.97;101860.13;6153787;23;20002;-74
2022/07/24 07:53:09;;;;;;;10.55;7.78;;;;;;;25.55;45.47;101869.34;6155686;23;20532;-77
2022/07/24 07:55:35;;;;;;;10.55;7.13;;;;;;;25.25;46.26;101862.13;6155006;23;20009;-77
2022/07/24 07:58:01;;;;;;;9.63;6.15;;;;;;;25.08;45.96;101848.97;6154660;23;20010;-81
2022/07/24 08:00:26;;;;;;;9.30;6.50;;;;;;;24.82;45.32;101858.84;6154693;23;20002;-78
2022/07/24 08:02:52;;;;;;;9.68;6.07;;;;;;;24.74;48.20;101853.56;6154881;23;20071;-78
2022/07/24 08:05:17;;;;;;;9.55;5.88;;;;;;;24.74;46.36;101854.38;6156279;23;20001;-78
2022/07/24 08:07:42;;;;;;;8.77;5.22;;;;;;;24.60;46.56;101850.56;6156498;23;20005;-72
2022/07/24 08:10:08;;;;;;;8.27;5.00;;;;;;;24.47;45.61;101847.56;6156309;23;20001;-78
2022/07/24 08:12:33;;;;;;;8.98;4.25;;;;;;;24.16;46.07;101830.66;6156654;23;20391;-78
2022/07/24 08:14:59;;;;;;;8.65;4.72;;;;;;;24.03;47.57;101831.13;6156806;23;20008;-77
2022/07/24 08:17:24;;;;;;;6.50;3.88;;;;;;;24.19;48.65;101862.84;6156393;23;20005;-74
2022/07/24 08:19:49;;;;;;;6.18;3.70;;;;;;;24.19;47.48;101857.56;6156416;23;20001;-78
2022/07/24 08:22:15;;;;;;;7.13;3.80;;;;;;;23.87;47.20;101834.50;6156157;23;20006;-77
2022/07/24 08:24:40;;;;;;;6.63;3.78;;;;;;;23.94;47.05;101861.09;6156348;23;20064;-79
2022/07/24 08:27:06;;;;;;;6.60;3.97;;;;;;;23.89;47.34;101853.66;6156487;23;20005;-78
2022/07/24 08:29:31;;;;;;;5.32;3.72;;;;;;;23.91;48.88;101859.59;6156504;23;20009;-77
2022/07/24 08:31:56;;;;;;;5.90;3.38;;;;;;;23.84;48.45;101857.75;6156802;23;20095;-78
2022/07/24 08:34:22;;;;;;;7.15;3.50;;;;;;;23.83;47.51;101858.75;6156889;23;20009;-79
2022/07/24 08:36:47;;;;;;;5.88;3.42;;;;;;;23.82;47.89;101862.38;6156050;23;20419;-73
2022/07/24 08:39:13;;;;;;;4.88;3.20;;;;;;;23.89;48.46;101863.38;6156502;23;20012;-79
2022/07/24 08:41:39;;;;;;;6.53;3.33;;;;;;;23.92;47.99;101852.53;6156252;23;20001;-77
2022/07/24 08:44:05;;;;;;;6.78;3.95;;;;;;;23.91;50.12;101859.59;6156545;23;20429;-79
2022/07/24 08:46:31;;;;;;;5.75;3.92;;;;;;;23.84;48.88;101841.94;6156405;23;20450;-78
2022/07/24 08:48:57;;;;;;;6.93;3.60;;;;;;;23.84;50.32;101836.66;6156244;23;20014;-78
2022/07/24 08:51:23;;;;;;;5.05;3.30;;;;;;;23.96;49.44;101853.84;6156171;23;20005;-79
2022/07/24 08:53:49;;;;;;;6.40;3.83;;;;;;;24.02;49.85;101851.41;6129049;23;20037;-78
2022/07/24 08:56:16;;;;;;;5.20;3.70;;;;;;;23.87;49.63;101829.22;6156009;23;20005;-77
2022/07/24 08:58:41;;;;;;;6.93;4.10;;;;;;;24.06;49.99;101851.06;6156482;23;20335;-79
2022/07/24 09:01:07;;;;;;;6.55;3.65;;;;;;;24.01;48.73;101852.38;6156043;23;20002;-80
2022/07/24 09:03:44;;;;;;;6.75;3.95;;;;;;;24.10;50.93;101845.34;6155992;23;20060;-78
2022/07/24 09:06:10;;;;;;;6.40;4.07;;;;;;;24.14;49.39;101845.81;6155726;23;20001;-81
2022/07/24 09:08:38;;;;;;;6.18;3.60;;;;;;;24.14;51.19;101833.47;6156075;23;20080;-79
2022/07/24 09:11:05;;;;;;;7.13;4.10;;;;;;;24.26;50.77;101852.44;6156224;23;20036;-78
2022/07/24 09:16:24;;;;;;;6.13;3.70;;;;;;;24.43;51.02;101840.97;6156099;23;20071;-79
2022/07/24 09:19:02;;;;;;;5.97;4.28;;;;;;;24.48;49.99;101836.03;6154454;23;20036;-79
2022/07/24 09:21:32;;;;;;;5.90;4.20;;;;;;;24.57;51.02;101834.22;6155775;23;20002;-79
2022/07/24 09:24:02;;;;;;;6.28;4.13;;;;;;;24.59;49.13;101834.91;6156077;23;20420;-79
2022/07/24 09:26:43;;;;;;;7.93;4.20;;;;;;;24.52;50.09;101834.72;6155965;23;20010;-78
2022/07/24 09:29:11;;;;;;;5.85;3.70;;;;;;;24.62;50.59;101833.75;6156277;23;20068;-78
2022/07/24 09:32:08;;;;;;;6.22;3.80;;;;;;;24.66;50.33;101824.47;6155999;23;20005;-77
2022/07/24 09:34:39;;;;;;;5.05;3.53;;;;;;;24.76;50.24;101819.88;6035659;23;20012;-75
2022/07/24 09:37:06;;;;;;;;;;;;;;;24.86;51.63;101818.69;6038230;23;20015;-75
2022/07/24 09:39:33;;;;;;;5.97;3.83;;;;;;;24.87;48.75;101795.75;6037614;23;19949;-77
2022/07/24 09:42:00;;;;;;;5.90;3.50;;;;;;;25.09;50.82;101823.34;6036989;23;20079;-78
2022/07/24 09:44:26;;;;;;;4.93;3.80;;;;;;;25.07;50.62;101815.59;6037068;23;20007;-73
2022/07/24 09:47:02;;;;;;;5.55;3.97;;;;;;;25.14;50.51;101816.56;6037330;23;20030;-76
2022/07/24 09:49:28;;;;;;;5.55;4.00;;;;;;;25.19;49.33;101815.25;6013033;23;20016;-74
2022/07/24 09:52:15;;;;;;;5.50;3.55;;;;;;;25.28;49.50;101814.22;6037168;23;20567;-76
2022/07/24 09:54:43;;;;;;;7.55;3.90;;;;;;;25.23;50.01;101780.34;6036809;23;20011;-79
2022/07/24 09:57:15;;;;;;;5.28;3.80;;;;;;;25.40;49.79;101815.50;6037000;23;20011;-80
2022/07/24 09:59:42;;;;;;;7.10;3.70;;;;;;;25.48;49.81;101807.56;6037113;23;20082;-80
2022/07/24 10:02:12;;;;;;;5.30;3.70;;;;;;;25.49;48.87;101801.28;6036590;23;20042;-82
2022/07/24 10:04:40;;;;;;;6.22;3.70;;;;;;;25.56;50.49;101799.56;6036796;23;20086;-82
2022/07/24 10:07:10;;;;;;;5.88;3.83;;;;;;;25.68;50.15;101798.22;6036486;23;20131;-80
2022/07/24 10:09:39;;;;;;;5.45;4.00;;;;;;;25.59;47.83;101783.38;6069598;23;20009;-81
2022/07/24 10:12:10;;;;;;;5.45;3.47;;;;;;;25.46;49.61;101760.09;6156067;23;20024;-82
2022/07/24 10:14:36;;;;;;;;;;;;;;;25.67;49.74;101788.63;6156141;23;20012;-82
2022/07/24 10:17:06;;;;;;;7.38;4.25;;;;;;;25.69;49.57;101789.28;6155244;23;19991;-82
2022/07/24 10:19:39;;;;;;;6.80;3.67;;;;;;;25.73;48.48;101787.13;6155512;23;20012;-81
2022/07/24 10:22:14;;;;;;;6.45;3.65;;;;;;;25.65;48.06;101758.88;6155610;23;20013;-80
2022/07/24 10:24:54;;;;;;;8.13;4.10;;;;;;;25.81;48.60;101779.16;6155263;23;20033;-82
2022/07/24 10:27:30;;;;;;;4.75;3.53;;;;;;;25.96;49.54;101788.03;6154973;23;20001;-82
2022/07/24 10:30:09;;;;;;;7.28;3.65;;;;;;;26.03;47.48;101772.25;6155405;23;20012;-82
2022/07/24 10:32:37;;;;;;;5.47;3.63;;;;;;;26.02;47.09;101774.06;6155656;23;20406;-81
2022/07/24 10:35:22;;;;;;;5.13;3.50;;;;;;;26.01;47.43;101783.03;6155573;23;20071;-81
2022/07/24 10:37:57;;;;;;;6.32;4.10;;;;;;;25.96;47.20;101781.91;6155049;23;20005;-81
2022/07/24 10:40:24;;;;;;;5.05;3.28;;;;;;;25.99;46.21;101781.56;6155242;23;20449;-80
2022/07/24 10:43:05;;;;;;;6.57;3.83;;;;;;;26.09;47.69;101778.69;6155415;23;20117;-79
2022/07/24 10:45:31;;;;;;;5.32;3.67;;;;;;;26.00;47.46;101760.19;6155085;23;20006;-81
2022/07/24 10:47:57;;;;;;;4.40;3.30;;;;;;;26.16;47.00;101774.34;6155249;23;20009;-73
2022/07/24 10:50:23;;;;;;;8.38;3.35;;;;;;;26.31;49.28;101775.22;6155666;23;20048;-80
2022/07/24 10:52:48;;;;;;;8.38;3.40;;;;;;;26.34;46.67;101766.91;6155130;23;19997;-78
2022/07/24 10:55:34;;;;;;;5.18;3.40;;;;;;;26.41;47.57;101765.22;6155217;23;20005;-81
2022/07/24 10:58:03;;;;;;;4.85;3.08;;;;;;;26.48;45.85;101758.22;6155222;23;20037;-76
2022/07/24 11:00:40;;;;;;;6.60;3.05;;;;;;;26.58;46.21;101758.81;6155274;23;20080;-78
2022/07/24 11:03:08;;;;;;;4.40;3.00;;;;;;;26.61;46.27;101754.16;6155095;23;20087;-80
2022/07/24 11:05:35;;;;;;;6.05;3.50;;;;;;;26.47;45.68;101746.00;6155115;23;20080;-79
2022/07/24 11:08:16;;;;;;;5.95;3.65;;;;;;;26.59;46.90;101754.31;6154957;23;20536;-80
2022/07/24 11:10:45;;;;;;;7.05;3.40;;;;;;;26.50;46.04;101760.69;6155079;23;20440;-79
2022/07/24 11:13:32;;;;;;;6.20;3.10;;;;;;;26.56;47.13;101752.88;6155014;23;20008;-74
2022/07/24 11:16:10;;;;;;;4.93;3.30;;;;;;;26.61;45.77;101751.50;6155458;23;20001;-74